KRNC/RNC METAR and TAF weather

Enter ICAO airport designator
Station Type Date Time Source
KRNC METAR 2021/01/17 19:55 UTC NOAA

KRNC 171955Z AUTO 26010G16KT 10SM FEW044 SCT055 07/M03 A2981 RMK A01


Station Type Date Time Source
KRNC Decoded METAR 2021/01/17 19:55 UTC NOAA

Station name not available
Jan 17, 2021 - 02:55 PM EST / 2021.01.17 1955 UTC
Wind: from the W (260 degrees) at 12 MPH (10 KT) gusting to 18 MPH (16 KT):0
Visibility: 10 mile(s):0
Sky conditions: partly cloudy
Temperature: 44 F (7 C)
Dew Point: 26 F (-3 C)
Relative Humidity: 48%
Pressure (altimeter): 29.81 in. Hg (1009 hPa)
ob: KRNC 171955Z AUTO 26010G16KT 10SM FEW044 SCT055 07/M03 A2981 RMK A01
cycle: 20

Station Type Date Time Source
KRNC TAF 2009/08/31 19:45 UTC NOAA

METAR KRNC 311945Z AUTO 35008KT 10SM CLR 25/12 A3011
RMK AO1 T02500116 $

Example: see airport list